Time;durP1;ratioP1;P1;durP2;ratioP2;P2;SDS_P1;SDS_P2;PMS_P1;PMS_P2;Temp;Humidity;BMP_temperature;BMP_pressure;BME280_temperature;BME280_humidity;BME280_pressure;Samples;Min_cycle;Max_cycle;Signal;HPM_P1;HPM_P2
2020/12/24 00:02:26;;;;;;;23.13;11.33;;;5.50;99.90;;;;;;8233213;28;20058;-72
2020/12/24 00:06:28;;;;;;;21.20;12.27;;;6.20;99.90;;;;;;8226936;28;20077;-72
2020/12/24 00:10:29;;;;;;;20.50;11.70;;;5.50;99.90;;;;;;8234574;28;20062;-72
2020/12/24 00:14:32;;;;;;;25.13;11.40;;;5.60;99.90;;;;;;8216463;28;20042;-72
2020/12/24 00:18:34;;;;;;;21.40;11.40;;;5.70;99.90;;;;;;8218500;28;20109;-72
2020/12/24 00:22:35;;;;;;;29.17;11.73;;;5.60;99.90;;;;;;8226288;28;20551;-73
2020/12/24 00:26:37;;;;;;;23.20;12.40;;;5.30;99.90;;;;;;8203160;28;20062;-72
2020/12/24 00:30:40;;;;;;;28.27;12.30;;;5.20;99.90;;;;;;8219178;28;20519;-75
2020/12/24 00:34:42;;;;;;;22.65;11.40;;;5.40;99.90;;;;;;8218537;28;20062;-72
2020/12/24 00:38:44;;;;;;;18.45;11.85;;;5.50;99.90;;;;;;8216195;28;23618;-71
2020/12/24 00:42:45;;;;;;;20.60;11.50;;;5.30;99.90;;;;;;8222011;28;20089;-71
2020/12/24 00:46:47;;;;;;;27.45;12.23;;;5.60;99.90;;;;;;8230727;28;20117;-71
2020/12/24 00:50:49;;;;;;;20.13;11.10;;;5.40;99.90;;;;;;8234443;28;20427;-72
2020/12/24 00:54:51;;;;;;;17.03;10.90;;;5.90;99.90;;;;;;8215647;28;20058;-72
2020/12/24 00:58:53;;;;;;;19.90;11.40;;;5.40;99.90;;;;;;8227767;28;20137;-72
2020/12/24 01:02:55;;;;;;;17.30;10.40;;;5.70;99.90;;;;;;8217373;28;20824;-73
2020/12/24 01:06:56;;;;;;;20.70;10.60;;;5.70;99.90;;;;;;8220286;28;20063;-72
2020/12/24 01:10:57;;;;;;;20.33;10.83;;;5.60;99.90;;;;;;8232056;28;20137;-72
2020/12/24 01:14:59;;;;;;;20.37;10.83;;;6.10;99.90;;;;;;8217810;28;20043;-72
2020/12/24 01:19:01;;;;;;;23.38;12.35;;;6.10;99.90;;;;;;8227575;28;20550;-71
2020/12/24 01:23:03;;;;;;;25.97;12.97;;;5.80;99.90;;;;;;8232885;28;20504;-72
2020/12/24 01:27:04;;;;;;;25.90;12.98;;;6.10;99.90;;;;;;8234626;28;21119;-72
2020/12/24 01:31:06;;;;;;;24.13;13.10;;;6.20;99.90;;;;;;8233183;28;20055;-72
2020/12/24 01:35:07;;;;;;;27.77;13.30;;;6.00;99.90;;;;;;8240825;28;20083;-72
2020/12/24 01:39:09;;;;;;;25.00;13.60;;;5.70;99.90;;;;;;8209893;28;20519;-72
2020/12/24 01:43:11;;;;;;;;;;;5.50;99.90;;;;;;8239072;28;20066;-72
2020/12/24 01:47:17;;;;;;;28.00;14.45;;;5.70;99.90;;;;;;8214844;28;20307;-72
2020/12/24 01:51:32;;;;;;;33.25;14.25;;;5.50;99.90;;;;;;8216334;28;20109;-72
2020/12/24 01:55:33;;;;;;;26.05;13.77;;;5.50;99.90;;;;;;8234005;28;20069;-72
2020/12/24 01:59:35;;;;;;;29.33;15.47;;;5.40;99.90;;;;;;8238426;28;20054;-72
2020/12/24 02:03:36;;;;;;;35.73;15.33;;;6.00;99.90;;;;;;8220756;28;20051;-72
2020/12/24 02:07:38;;;;;;;32.20;15.27;;;5.50;99.90;;;;;;8236048;28;21033;-71
2020/12/24 02:11:40;;;;;;;28.95;16.15;;;5.40;99.90;;;;;;8243306;28;20066;-72
2020/12/24 02:15:42;;;;;;;37.60;17.35;;;5.80;99.90;;;;;;8222787;28;20062;-72
2020/12/24 02:19:43;;;;;;;35.17;17.47;;;5.80;99.90;;;;;;8237123;28;20042;-72
2020/12/24 02:23:45;;;;;;;34.27;15.50;;;6.50;99.90;;;;;;8218261;28;20395;-72
2020/12/24 02:27:46;;;;;;;33.45;15.98;;;5.80;99.90;;;;;;8233807;28;20038;-72
2020/12/24 02:31:48;;;;;;;33.10;15.55;;;5.60;99.90;;;;;;8229478;28;20129;-72
2020/12/24 02:35:50;;;;;;;33.97;15.77;;;5.80;99.90;;;;;;8234998;28;20056;-72
2020/12/24 02:39:51;;;;;;;37.70;16.37;;;5.90;99.90;;;;;;8237747;28;20702;-73
2020/12/24 02:43:53;;;;;;;32.13;16.90;;;6.00;99.90;;;;;;8231161;28;20515;-73
2020/12/24 02:47:54;;;;;;;34.57;16.53;;;6.60;99.90;;;;;;8230638;28;20138;-73
2020/12/24 02:51:56;;;;;;;32.20;16.30;;;6.00;99.90;;;;;;8240844;28;20295;-73
2020/12/24 02:55:57;;;;;;;28.83;15.60;;;6.10;99.90;;;;;;8212915;28;20112;-72
2020/12/24 03:00:03;;;;;;;34.20;16.30;;;6.10;99.90;;;;;;8221064;28;20491;-73
2020/12/24 03:04:05;;;;;;;33.10;16.30;;;5.80;99.90;;;;;;8242304;28;20128;-72
2020/12/24 03:08:06;;;;;;;31.53;16.50;;;6.30;99.90;;;;;;8223574;28;20422;-72
2020/12/24 03:12:11;;;;;;;31.13;16.85;;;6.00;99.90;;;;;;8230368;28;20065;-72
2020/12/24 03:16:14;;;;;;;33.28;15.15;;;6.30;99.90;;;;;;8218412;28;20058;-73
2020/12/24 03:20:17;;;;;;;33.83;15.98;;;6.00;99.90;;;;;;8220584;28;20054;-72
2020/12/24 03:24:18;;;;;;;31.23;14.80;;;6.20;99.90;;;;;;8228287;28;20058;-72
2020/12/24 03:28:19;;;;;;;31.40;14.10;;;6.20;99.90;;;;;;8212549;28;20056;-71
2020/12/24 03:32:21;;;;;;;28.17;13.80;;;5.80;99.90;;;;;;8215919;28;20054;-72
2020/12/24 03:36:22;;;;;;;26.58;12.55;;;6.10;99.90;;;;;;8236962;28;20578;-72
2020/12/24 03:40:24;;;;;;;20.00;11.83;;;5.90;99.90;;;;;;8241605;28;20054;-73
2020/12/24 03:44:25;;;;;;;24.23;12.90;;;5.80;99.90;;;;;;8213153;28;20730;-73
2020/12/24 03:48:27;;;;;;;28.67;11.80;;;5.50;99.90;;;;;;8236760;28;20042;-72
2020/12/24 03:52:28;;;;;;;22.25;11.60;;;5.80;99.90;;;;;;8233512;28;20828;-73
2020/12/24 03:56:30;;;;;;;19.53;11.30;;;6.20;99.90;;;;;;8220503;28;20058;-73
2020/12/24 04:00:32;;;;;;;24.07;11.37;;;5.90;99.90;;;;;;8237395;28;20681;-72
2020/12/24 04:04:33;;;;;;;16.55;10.35;;;5.90;99.90;;;;;;8237428;28;20649;-72
2020/12/24 04:08:35;;;;;;;19.10;10.87;;;6.20;99.90;;;;;;8207487;28;20104;-72
2020/12/24 04:12:36;;;;;;;20.30;10.10;;;6.20;99.90;;;;;;8214333;28;20109;-70
2020/12/24 04:16:37;;;;;;;14.43;8.57;;;6.00;99.90;;;;;;8223128;28;20551;-71
2020/12/24 04:20:39;;;;;;;17.40;8.70;;;6.00;99.90;;;;;;8249176;28;20081;-70
2020/12/24 04:24:41;;;;;;;17.30;8.90;;;6.00;99.90;;;;;;8233590;28;20128;-73
2020/12/24 04:28:43;;;;;;;17.13;9.48;;;5.90;99.90;;;;;;8213347;28;20060;-72
2020/12/24 04:32:44;;;;;;;19.93;9.43;;;6.20;99.90;;;;;;8221451;28;20062;-72
2020/12/24 04:36:49;;;;;;;22.93;9.47;;;5.70;99.90;;;;;;8226186;28;20130;-72
2020/12/24 04:40:51;;;;;;;15.77;8.50;;;5.80;99.90;;;;;;8218045;28;20097;-73
2020/12/24 04:44:52;;;;;;;15.88;8.73;;;6.40;99.90;;;;;;8231557;28;20054;-72
2020/12/24 04:48:56;;;;;;;19.37;9.10;;;6.40;99.90;;;;;;8247403;28;20504;-72
2020/12/24 04:52:58;;;;;;;18.67;8.15;;;5.70;99.90;;;;;;8237039;28;20058;-72
2020/12/24 04:57:09;;;;;;;16.93;8.47;;;5.90;99.90;;;;;;8234317;28;20538;-72
2020/12/24 05:01:18;;;;;;;14.77;7.28;;;5.80;99.90;;;;;;8218529;28;20452;-71
2020/12/24 05:05:19;;;;;;;16.58;7.43;;;6.00;99.90;;;;;;8215733;28;20068;-72
2020/12/24 05:09:23;;;;;;;15.87;7.53;;;5.80;99.90;;;;;;8228508;28;20055;-72
2020/12/24 05:13:24;;;;;;;15.48;7.55;;;5.80;99.90;;;;;;8238519;28;20665;-72
2020/12/24 05:17:26;;;;;;;15.27;7.60;;;5.60;99.90;;;;;;8224042;28;20054;-72
2020/12/24 05:21:33;;;;;;;13.60;6.93;;;5.50;99.90;;;;;;8238362;28;20058;-72
2020/12/24 05:25:34;;;;;;;12.85;6.30;;;5.50;99.90;;;;;;8213702;28;20484;-73
2020/12/24 05:29:37;;;;;;;19.03;6.13;;;5.40;99.90;;;;;;8243060;28;20050;-72
2020/12/24 05:33:39;;;;;;;11.10;6.13;;;5.70;99.90;;;;;;8239129;28;20388;-73
2020/12/24 05:37:41;;;;;;;12.48;5.95;;;5.60;99.90;;;;;;8253322;28;20462;-73
2020/12/24 05:41:42;;;;;;;11.43;6.10;;;5.60;99.90;;;;;;8227619;28;20109;-73
2020/12/24 05:45:44;;;;;;;9.95;5.57;;;5.50;99.90;;;;;;8237146;28;28990;-72
2020/12/24 05:49:45;;;;;;;12.03;6.40;;;5.40;99.90;;;;;;8230651;28;20105;-73
2020/12/24 05:53:47;;;;;;;10.80;5.13;;;5.40;99.90;;;;;;8206015;28;20105;-72
2020/12/24 05:57:48;;;;;;;;;;;4.90;99.90;;;;;;8238327;28;20901;-72
2020/12/24 06:02:00;;;;;;;16.33;5.95;;;5.10;99.90;;;;;;8216781;28;20317;-73
2020/12/24 06:06:06;;;;;;;11.37;6.10;;;5.00;99.90;;;;;;8231006;28;20660;-72
2020/12/24 06:10:08;;;;;;;10.20;6.32;;;5.50;99.90;;;;;;8218990;28;20141;-72
2020/12/24 06:14:21;;;;;;;11.52;5.85;;;5.40;99.90;;;;;;8232486;28;20073;-72
2020/12/24 06:18:23;;;;;;;11.75;5.90;;;5.10;99.90;;;;;;8236545;28;20101;-72
2020/12/24 06:22:26;;;;;;;11.40;5.38;;;5.50;99.90;;;;;;8218173;28;20058;-74
2020/12/24 06:26:34;;;;;;;10.73;5.93;;;5.20;99.90;;;;;;8228045;28;20472;-72
2020/12/24 06:30:38;;;;;;;14.50;5.75;;;5.30;99.90;;;;;;8237948;28;20050;-72
2020/12/24 06:34:40;;;;;;;12.40;5.55;;;5.80;99.90;;;;;;8221183;28;20183;-72
2020/12/24 06:38:47;;;;;;;11.80;4.55;;;5.00;99.90;;;;;;8204542;28;20055;-72
2020/12/24 06:42:51;;;;;;;9.13;3.95;;;5.00;99.90;;;;;;8234949;28;20578;-72
2020/12/24 06:46:59;;;;;;;11.57;4.78;;;5.60;99.90;;;;;;8225713;28;20053;-72
2020/12/24 06:51:03;;;;;;;9.02;3.97;;;5.00;99.90;;;;;;8252383;28;20123;-69
2020/12/24 06:55:16;;;;;;;14.52;4.82;;;5.10;99.90;;;;;;8240635;28;20142;-74
2020/12/24 06:59:19;;;;;;;13.18;4.93;;;4.90;99.90;;;;;;8253076;28;20081;-74
2020/12/24 07:03:25;;;;;;;15.57;4.82;;;4.80;99.90;;;;;;8243814;28;20061;-73
2020/12/24 07:07:46;;;;;;;8.10;3.97;;;5.10;99.90;;;;;;8243095;28;20046;-75
2020/12/24 07:11:49;;;;;;;14.45;4.57;;;5.70;99.90;;;;;;8249479;28;20058;-74
2020/12/24 07:15:51;;;;;;;11.07;3.90;;;5.10;99.90;;;;;;8211593;28;20054;-74
2020/12/24 07:19:56;;;;;;;10.50;4.00;;;5.30;99.90;;;;;;8215925;28;21061;-73
2020/12/24 07:24:02;;;;;;;9.57;3.80;;;5.10;99.90;;;;;;8225615;28;20418;-74
2020/12/24 07:28:13;;;;;;;9.25;3.58;;;4.90;99.90;;;;;;8234346;28;20050;-74
2020/12/24 07:32:15;;;;;;;9.70;3.38;;;5.00;99.90;;;;;;8216185;28;20113;-74
2020/12/24 07:36:16;;;;;;;8.32;2.90;;;4.90;99.90;;;;;;8218717;28;20054;-74
2020/12/24 07:40:18;;;;;;;11.50;3.63;;;5.10;99.90;;;;;;8231512;28;20069;-74
2020/12/24 07:44:20;;;;;;;9.13;3.15;;;4.90;99.90;;;;;;8252096;28;20058;-74
2020/12/24 07:48:24;;;;;;;10.25;2.90;;;4.90;99.90;;;;;;8231098;28;20050;-74
2020/12/24 07:52:25;;;;;;;10.48;3.53;;;5.00;99.90;;;;;;8235333;28;20166;-74
2020/12/24 07:56:28;;;;;;;8.97;2.87;;;5.10;99.90;;;;;;8232610;28;20120;-74
2020/12/24 08:00:29;;;;;;;5.65;2.58;;;5.80;99.90;;;;;;8240458;28;20105;-74
2020/12/24 08:04:31;;;;;;;12.27;3.13;;;5.20;99.90;;;;;;8225300;28;20064;-74
2020/12/24 08:08:35;;;;;;;6.32;3.05;;;4.70;99.90;;;;;;8214880;28;20051;-74
2020/12/24 08:12:37;;;;;;;7.07;2.72;;;4.90;99.90;;;;;;8233290;28;20073;-74
2020/12/24 08:16:41;;;;;;;10.20;2.80;;;4.60;99.90;;;;;;8210537;28;20058;-74
2020/12/24 08:21:06;;;;;;;7.13;2.95;;;4.80;99.90;;;;;;8225311;28;20057;-74
2020/12/24 08:25:09;;;;;;;5.35;2.75;;;4.50;99.90;;;;;;8224467;28;20054;-74
2020/12/24 08:29:10;;;;;;;9.50;2.72;;;4.80;99.90;;;;;;8211712;28;20050;-74
2020/12/24 08:33:13;;;;;;;7.60;2.72;;;4.90;99.90;;;;;;8229806;28;20112;-74
2020/12/24 08:37:25;;;;;;;5.20;2.00;;;5.00;99.90;;;;;;8219576;28;20117;-72
2020/12/24 08:41:30;;;;;;;6.22;2.92;;;4.90;99.90;;;;;;8236413;28;20054;-71
2020/12/24 08:45:31;;;;;;;9.05;2.95;;;4.70;99.90;;;;;;8229272;28;20067;-72
2020/12/24 08:49:40;;;;;;;8.10;2.63;;;4.50;99.90;;;;;;8216820;28;20519;-72
2020/12/24 08:53:42;;;;;;;7.15;3.05;;;4.40;99.90;;;;;;8212883;28;20464;-71
2020/12/24 08:57:50;;;;;;;5.85;3.15;;;4.60;99.90;;;;;;8237625;28;20058;-72
2020/12/24 09:01:58;;;;;;;7.22;2.85;;;4.40;99.90;;;;;;8232632;28;20113;-71
2020/12/24 09:06:12;;;;;;;6.90;3.20;;;4.60;99.90;;;;;;8214467;28;20560;-72
2020/12/24 09:10:17;;;;;;;6.78;3.60;;;5.30;99.90;;;;;;8222016;28;20058;-71
2020/12/24 09:14:22;;;;;;;7.00;3.85;;;4.00;99.90;;;;;;8252411;28;20105;-71
2020/12/24 09:18:23;;;;;;;7.15;4.18;;;4.60;99.90;;;;;;8248501;28;20137;-71
2020/12/24 09:22:24;;;;;;;9.77;3.60;;;4.10;99.90;;;;;;8240749;28;20054;-71
2020/12/24 09:26:26;;;;;;;7.43;2.97;;;4.60;99.90;;;;;;8222399;28;20480;-71
2020/12/24 09:30:28;;;;;;;9.95;4.82;;;4.40;99.90;;;;;;8240159;28;20101;-71
2020/12/24 09:34:30;;;;;;;8.57;4.18;;;4.00;99.90;;;;;;8229411;28;20533;-70
2020/12/24 09:38:31;;;;;;;10.20;4.45;;;4.20;99.90;;;;;;8222038;28;20057;-71
2020/12/24 09:42:33;;;;;;;8.03;3.43;;;3.80;99.90;;;;;;8235652;28;20423;-71
2020/12/24 09:46:34;;;;;;;7.20;4.07;;;4.40;99.90;;;;;;8231173;28;20125;-71
2020/12/24 09:50:37;;;;;;;10.60;3.40;;;4.00;99.90;;;;;;8223912;28;20042;-71
2020/12/24 09:54:39;;;;;;;9.45;3.83;;;4.00;99.90;;;;;;8231971;28;20472;-71
2020/12/24 09:58:40;;;;;;;9.33;4.30;;;4.10;99.90;;;;;;8225293;28;20060;-71
2020/12/24 10:02:42;;;;;;;10.32;4.38;;;4.10;99.90;;;;;;8219258;28;20066;-72
2020/12/24 10:06:44;;;;;;;8.43;3.70;;;4.40;99.90;;;;;;8222404;28;20058;-71
2020/12/24 10:10:45;;;;;;;6.40;3.47;;;3.80;99.90;;;;;;8244769;28;20511;-71
2020/12/24 10:14:47;;;;;;;10.33;4.70;;;4.40;99.90;;;;;;8254817;28;20576;-71
2020/12/24 10:18:48;;;;;;;8.48;4.22;;;3.90;99.90;;;;;;8237009;28;20841;-71
2020/12/24 10:22:49;;;;;;;8.60;4.90;;;4.50;99.90;;;;;;8219952;28;20688;-71
2020/12/24 10:26:55;;;;;;;12.52;5.32;;;4.00;99.90;;;;;;8229545;28;20058;-71
2020/12/24 10:30:56;;;;;;;8.07;5.05;;;4.30;99.90;;;;;;8239957;28;20058;-72
2020/12/24 10:34:58;;;;;;;7.67;4.67;;;4.10;99.90;;;;;;8221660;28;20483;-73
2020/12/24 10:39:01;;;;;;;11.20;4.87;;;4.00;99.90;;;;;;8234537;28;20058;-72
2020/12/24 10:43:03;;;;;;;8.70;5.00;;;4.80;99.90;;;;;;8223429;28;20057;-71
2020/12/24 10:47:05;;;;;;;;;;;4.30;99.90;;;;;;8228736;28;20073;-71
2020/12/24 10:51:08;;;;;;;7.78;4.50;;;4.40;99.90;;;;;;8249180;28;19936;-71
2020/12/24 10:55:09;;;;;;;8.27;4.63;;;4.20;99.90;;;;;;8222778;28;20405;-71
2020/12/24 10:59:11;;;;;;;8.77;4.72;;;5.10;99.90;;;;;;8233234;28;20085;-71
2020/12/24 11:03:12;;;;;;;10.93;5.60;;;4.50;99.90;;;;;;8243942;28;20054;-71
2020/12/24 11:07:14;;;;;;;11.83;5.23;;;4.60;99.90;;;;;;8217503;28;20598;-71
2020/12/24 11:11:16;;;;;;;8.93;5.37;;;4.50;99.90;;;;;;8218472;28;20053;-70
2020/12/24 11:15:17;;;;;;;10.27;5.78;;;4.40;99.90;;;;;;8234784;28;20523;-71
2020/12/24 11:19:19;;;;;;;12.30;5.67;;;4.20;99.90;;;;;;8238247;28;20108;-71
2020/12/24 11:23:23;;;;;;;8.38;5.57;;;4.50;99.90;;;;;;8221966;28;20058;-71
2020/12/24 11:27:25;;;;;;;11.63;6.95;;;4.50;99.90;;;;;;8233116;28;20054;-71
2020/12/24 11:31:29;;;;;;;13.55;6.43;;;4.60;99.90;;;;;;8249340;28;20086;-71
2020/12/24 11:35:30;;;;;;;11.23;6.03;;;4.30;99.90;;;;;;8212360;28;20526;-71
2020/12/24 11:39:32;;;;;;;12.33;6.73;;;4.80;99.90;;;;;;8241365;28;20054;-71
2020/12/24 11:43:37;;;;;;;10.20;5.57;;;4.60;99.90;;;;;;8219409;28;20081;-70
2020/12/24 11:47:39;;;;;;;9.40;6.10;;;4.70;99.90;;;;;;8213047;28;20097;-71
2020/12/24 11:51:40;;;;;;;14.05;6.85;;;4.40;99.90;;;;;;8215897;28;20140;-71
2020/12/24 11:55:43;;;;;;;12.02;6.50;;;5.10;99.90;;;;;;8235469;28;21928;-70
2020/12/24 11:59:44;;;;;;;13.90;6.07;;;4.60;99.90;;;;;;8246980;28;20080;-71
2020/12/24 12:03:47;;;;;;;10.70;5.88;;;4.80;99.90;;;;;;8233609;28;20055;-72
2020/12/24 12:07:48;;;;;;;10.80;6.25;;;5.10;99.90;;;;;;8214996;28;20333;-71
2020/12/24 12:11:50;;;;;;;11.57;6.40;;;4.90;99.90;;;;;;8232347;28;20230;-71
2020/12/24 12:15:52;;;;;;;14.18;6.85;;;4.80;99.90;;;;;;8242683;28;20677;-71
2020/12/24 12:19:53;;;;;;;12.80;6.03;;;4.50;99.90;;;;;;8216557;28;20054;-70
2020/12/24 12:23:56;;;;;;;10.73;4.23;;;4.70;99.90;;;;;;8228954;28;20857;-71
2020/12/24 12:27:57;;;;;;;11.57;6.15;;;4.60;99.90;;;;;;8232989;28;20069;-71
2020/12/24 12:31:59;;;;;;;13.67;8.73;;;5.00;99.90;;;;;;8217543;28;20088;-71
2020/12/24 12:36:01;;;;;;;11.30;6.30;;;4.60;99.90;;;;;;8226325;28;20058;-72
2020/12/24 12:40:07;;;;;;;14.23;6.80;;;5.00;99.90;;;;;;8212391;28;20494;-71
2020/12/24 12:44:09;;;;;;;15.07;7.40;;;4.70;99.90;;;;;;8216678;28;20046;-71
2020/12/24 12:48:11;;;;;;;12.10;7.28;;;4.60;99.90;;;;;;8236344;28;20136;-71
2020/12/24 12:52:13;;;;;;;12.73;6.70;;;5.10;99.90;;;;;;8242506;28;20050;-71
2020/12/24 12:56:15;;;;;;;10.53;5.73;;;5.00;99.90;;;;;;8235850;28;20470;-71
2020/12/24 13:00:17;;;;;;;;;;;4.90;99.90;;;;;;8233489;28;20558;-70
2020/12/24 13:04:19;;;;;;;10.80;5.50;;;4.80;99.90;;;;;;8222569;28;20386;-71
2020/12/24 13:08:21;;;;;;;11.73;5.63;;;5.00;99.90;;;;;;8235439;28;20120;-71
2020/12/24 13:12:22;;;;;;;9.95;5.40;;;5.00;99.90;;;;;;8226902;28;20474;-71
2020/12/24 13:16:28;;;;;;;13.43;6.82;;;5.40;99.90;;;;;;8233987;28;20058;-71
2020/12/24 13:20:29;;;;;;;9.10;4.38;;;5.00;99.90;;;;;;8226779;28;20146;-71
2020/12/24 13:24:31;;;;;;;10.93;5.90;;;5.20;99.90;;;;;;8218561;28;20053;-70
2020/12/24 13:28:32;;;;;;;17.75;6.07;;;5.10;99.90;;;;;;8238826;28;20058;-70
2020/12/24 13:32:34;;;;;;;13.90;5.47;;;5.10;99.90;;;;;;8234366;28;20057;-70
2020/12/24 13:36:38;;;;;;;9.80;5.40;;;4.50;99.90;;;;;;8237563;28;20060;-71
2020/12/24 13:40:39;;;;;;;5.60;2.50;;;5.10;99.90;;;;;;8232663;28;20441;-71
2020/12/24 13:44:40;;;;;;;9.37;4.20;;;5.40;99.90;;;;;;8247955;28;20050;-71
2020/12/24 13:48:42;;;;;;;10.83;3.80;;;5.10;99.90;;;;;;8217919;28;20058;-71
2020/12/24 13:52:43;;;;;;;9.63;3.50;;;5.20;99.90;;;;;;8254686;28;20701;-71
2020/12/24 13:56:49;;;;;;;5.67;2.73;;;5.20;99.90;;;;;;8237886;28;20046;-70
2020/12/24 14:00:51;;;;;;;7.38;2.70;;;5.40;99.90;;;;;;8220170;28;20463;-71
2020/12/24 14:04:52;;;;;;;8.20;3.13;;;5.30;99.90;;;;;;8227971;28;20132;-71
2020/12/24 14:08:54;;;;;;;9.57;4.43;;;5.20;99.90;;;;;;8223502;28;20077;-71
2020/12/24 14:12:55;;;;;;;13.90;7.53;;;5.40;99.90;;;;;;8223838;28;20109;-71
2020/12/24 14:16:56;;;;;;;7.17;4.80;;;5.10;99.90;;;;;;8222063;28;20507;-71
2020/12/24 14:20:58;;;;;;;5.43;2.53;;;5.00;99.90;;;;;;8232177;28;20512;-71
2020/12/24 14:25:00;;;;;;;11.25;3.85;;;5.30;99.90;;;;;;8235401;28;20573;-72
2020/12/24 14:29:04;;;;;;;6.03;1.27;;;5.10;99.90;;;;;;8237146;28;20057;-71
2020/12/24 14:33:06;;;;;;;3.55;1.20;;;5.20;99.90;;;;;;8221844;28;20518;-72
2020/12/24 14:37:07;;;;;;;4.90;0.90;;;5.30;99.90;;;;;;8235558;28;20061;-71
2020/12/24 14:41:10;;;;;;;4.73;1.23;;;5.30;99.90;;;;;;8226389;28;20815;-71
2020/12/24 14:45:11;;;;;;;4.75;0.90;;;5.30;99.90;;;;;;8246504;28;20546;-71
2020/12/24 14:49:14;;;;;;;2.45;1.20;;;5.20;99.90;;;;;;8224253;28;20064;-71
2020/12/24 14:53:15;;;;;;;;;;;5.10;99.90;;;;;;8221885;28;20050;-71
2020/12/24 14:57:17;;;;;;;4.03;1.10;;;4.90;99.90;;;;;;8247907;28;19934;-71
2020/12/24 15:01:18;;;;;;;4.68;1.33;;;4.80;99.90;;;;;;8236474;28;20282;-71
2020/12/24 15:05:20;;;;;;;4.43;1.30;;;5.00;99.90;;;;;;8233526;28;20252;-71
2020/12/24 15:09:24;;;;;;;7.43;2.37;;;5.10;99.90;;;;;;8222798;28;20050;-70
2020/12/24 15:13:25;;;;;;;8.43;2.25;;;4.80;99.90;;;;;;8235405;28;20070;-71
2020/12/24 15:17:28;;;;;;;4.22;1.48;;;5.00;99.90;;;;;;8240283;28;20112;-70
2020/12/24 15:21:29;;;;;;;6.53;1.65;;;5.20;99.90;;;;;;8247123;28;20061;-71
2020/12/24 15:25:31;;;;;;;5.93;2.37;;;5.10;99.90;;;;;;8237775;28;20050;-71
2020/12/24 15:29:40;;;;;;;6.18;1.77;;;5.20;99.90;;;;;;8234411;28;20503;-71
2020/12/24 15:33:42;;;;;;;6.17;2.20;;;4.70;99.90;;;;;;8262341;28;20516;-70
2020/12/24 15:37:43;;;;;;;6.07;2.57;;;4.80;99.90;;;;;;8220860;28;20779;-71
2020/12/24 15:41:48;;;;;;;4.63;2.30;;;4.80;99.90;;;;;;8215407;28;20480;-72
2020/12/24 15:45:50;;;;;;;5.20;2.03;;;4.90;99.90;;;;;;8227988;28;20096;-73
2020/12/24 15:49:51;;;;;;;9.97;3.20;;;4.70;99.90;;;;;;8245063;28;20606;-73
2020/12/24 15:53:52;;;;;;;9.03;5.10;;;4.70;99.90;;;;;;8224062;28;20110;-73
2020/12/24 15:57:54;;;;;;;7.93;4.50;;;4.80;99.90;;;;;;8215898;28;20062;-72
2020/12/24 16:01:56;;;;;;;8.18;2.92;;;4.60;99.90;;;;;;8212460;28;20078;-73
2020/12/24 16:05:59;;;;;;;5.38;1.50;;;4.60;99.90;;;;;;8205015;28;20058;-73
2020/12/24 16:10:01;;;;;;;6.25;2.05;;;4.70;99.90;;;;;;8243847;28;20431;-73
2020/12/24 16:14:07;;;;;;;10.77;3.00;;;5.50;99.90;;;;;;8211008;28;20085;-73
2020/12/24 16:18:09;;;;;;;5.32;1.77;;;5.00;99.90;;;;;;8216388;28;20069;-73
2020/12/24 16:22:10;;;;;;;4.70;1.70;;;4.40;99.90;;;;;;8233984;28;20051;-73
2020/12/24 16:26:12;;;;;;;5.90;1.97;;;4.10;99.90;;;;;;8231392;28;20057;-73
2020/12/24 16:30:19;;;;;;;5.82;1.85;;;4.30;99.90;;;;;;8225517;28;20064;-72
2020/12/24 16:34:21;;;;;;;5.83;1.53;;;3.90;99.90;;;;;;8217688;28;20460;-73
2020/12/24 16:38:22;;;;;;;4.93;1.63;;;4.10;99.90;;;;;;8232167;28;20475;-73
2020/12/24 16:42:27;;;;;;;5.00;1.97;;;4.50;99.90;;;;;;8218142;28;20611;-72
2020/12/24 16:46:28;;;;;;;10.63;5.47;;;4.50;99.90;;;;;;8229570;28;20058;-73
2020/12/24 16:50:32;;;;;;;22.37;8.73;;;4.20;99.90;;;;;;8234725;28;20132;-73
2020/12/24 16:54:34;;;;;;;19.73;8.52;;;4.40;99.90;;;;;;8218217;28;20144;-73
2020/12/24 16:58:36;;;;;;;54.55;24.38;;;3.60;99.90;;;;;;8236594;28;20052;-73
2020/12/24 17:02:38;;;;;;;9.10;3.28;;;4.10;99.90;;;;;;8217030;28;20055;-73
2020/12/24 17:06:39;;;;;;;7.95;2.55;;;3.80;99.90;;;;;;8240519;28;20042;-73
2020/12/24 17:10:41;;;;;;;4.67;1.83;;;3.80;99.90;;;;;;8230853;28;20050;-72
2020/12/24 17:14:42;;;;;;;3.67;2.20;;;4.30;99.90;;;;;;8213629;28;21889;-74
2020/12/24 17:18:48;;;;;;;6.57;1.57;;;4.10;99.90;;;;;;8230407;28;20456;-73
2020/12/24 17:22:49;;;;;;;5.15;2.60;;;3.90;99.90;;;;;;8242013;28;20054;-73
2020/12/24 17:26:57;;;;;;;8.07;2.40;;;4.10;99.90;;;;;;8224397;28;20057;-73
2020/12/24 17:30:58;;;;;;;7.20;2.35;;;3.20;99.90;;;;;;8238540;28;20062;-73
2020/12/24 17:35:00;;;;;;;4.80;2.20;;;3.30;99.90;;;;;;8234787;28;20537;-73
2020/12/24 17:39:01;;;;;;;5.65;2.53;;;3.30;99.90;;;;;;8239015;28;20067;-73
2020/12/24 17:43:03;;;;;;;6.30;1.77;;;3.40;99.90;;;;;;8231427;28;20046;-73
2020/12/24 17:47:04;;;;;;;7.80;2.25;;;3.60;99.90;;;;;;8220391;28;20050;-73
2020/12/24 17:51:11;;;;;;;4.97;2.03;;;3.20;99.90;;;;;;8251957;28;20125;-74
2020/12/24 17:55:13;;;;;;;5.15;1.70;;;3.10;99.90;;;;;;8255487;28;20089;-73
2020/12/24 17:59:14;;;;;;;8.33;2.17;;;2.50;99.90;;;;;;8246823;28;20046;-73
2020/12/24 18:03:18;;;;;;;5.13;1.50;;;3.60;99.90;;;;;;8226494;28;20458;-72
2020/12/24 18:07:19;;;;;;;6.70;1.80;;;3.00;99.90;;;;;;8223980;28;20586;-72
2020/12/24 18:11:20;;;;;;;5.50;1.60;;;3.30;99.90;;;;;;8238436;28;20530;-73
2020/12/24 18:15:22;;;;;;;3.43;1.30;;;3.00;99.90;;;;;;8221384;28;20428;-73
2020/12/24 18:19:24;;;;;;;8.80;1.43;;;3.00;99.90;;;;;;8249042;28;20490;-73
2020/12/24 18:23:26;;;;;;;8.35;2.33;;;2.40;99.90;;;;;;8249133;28;20054;-73
2020/12/24 18:27:27;;;;;;;5.77;1.80;;;3.50;99.90;;;;;;8238903;28;20081;-73
2020/12/24 18:31:35;;;;;;;6.15;1.70;;;2.50;99.90;;;;;;8234899;28;20468;-73
2020/12/24 18:35:37;;;;;;;5.50;1.60;;;3.20;99.90;;;;;;8242332;28;20077;-73
2020/12/24 18:39:38;;;;;;;10.63;1.83;;;2.90;99.90;;;;;;8220781;28;20050;-73
2020/12/24 18:43:39;;;;;;;9.65;1.58;;;2.00;99.90;;;;;;8224307;28;20061;-73
2020/12/24 18:47:41;;;;;;;5.07;1.10;;;;;;;;;;8217685;28;28327;-75
2020/12/24 18:51:43;;;;;;;7.32;1.70;;;2.20;99.90;;;;;;8242927;28;20419;-74
2020/12/24 18:55:45;;;;;;;7.55;1.40;;;3.20;99.90;;;;;;8219584;28;20081;-75
2020/12/24 18:59:47;;;;;;;3.17;0.93;;;3.10;99.90;;;;;;8217442;28;20085;-74
2020/12/24 19:03:49;;;;;;;;;;;;;;;;;;8233869;28;20137;-74
2020/12/24 19:07:51;;;;;;;6.75;1.30;;;2.10;99.90;;;;;;8239445;28;20496;-75
2020/12/24 19:11:52;;;;;;;7.43;2.00;;;2.60;99.90;;;;;;8227331;28;20061;-75
2020/12/24 19:15:54;;;;;;;12.85;2.35;;;1.70;99.90;;;;;;8214122;28;20064;-75
2020/12/24 19:19:55;;;;;;;9.18;3.35;;;2.10;99.90;;;;;;8236289;28;20058;-75
2020/12/24 19:23:57;;;;;;;12.18;3.45;;;2.80;99.90;;;;;;8219655;28;20054;-75
2020/12/24 19:27:58;;;;;;;8.45;2.58;;;2.80;99.90;;;;;;8244103;28;20066;-76
2020/12/24 19:32:11;;;;;;;6.90;1.80;;;2.20;99.90;;;;;;8245985;28;20046;-76
2020/12/24 19:36:17;;;;;;;8.93;2.03;;;3.10;99.90;;;;;;8236711;28;20054;-73
2020/12/24 19:40:19;;;;;;;7.30;1.58;;;2.00;99.90;;;;;;8218202;28;20072;-76
2020/12/24 19:44:21;;;;;;;;;;;2.30;99.90;;;;;;8233680;28;20089;-75
2020/12/24 19:48:22;;;;;;;6.93;1.30;;;1.80;99.90;;;;;;8260076;28;19944;-75
2020/12/24 19:52:24;;;;;;;9.63;1.40;;;2.10;99.90;;;;;;8219565;28;20051;-75
2020/12/24 19:56:25;;;;;;;4.82;1.42;;;1.70;99.90;;;;;;8233246;28;20113;-74
2020/12/24 20:00:27;;;;;;;9.32;2.13;;;2.50;99.90;;;;;;8218453;28;20062;-74
2020/12/24 20:04:28;;;;;;;9.10;1.80;;;1.70;99.90;;;;;;8241609;28;20475;-72
2020/12/24 20:08:30;;;;;;;9.32;2.10;;;1.50;99.90;;;;;;8236413;28;20534;-72
2020/12/24 20:12:40;;;;;;;9.90;1.60;;;1.80;99.90;;;;;;8236528;28;20140;-73
2020/12/24 20:16:42;;;;;;;9.32;1.88;;;2.70;99.90;;;;;;8246604;28;20050;-70
2020/12/24 20:20:47;;;;;;;6.75;1.70;;;2.90;99.90;;;;;;8218939;28;20059;-72
2020/12/24 20:24:49;;;;;;;7.32;1.73;;;2.70;99.90;;;;;;8243346;28;20081;-72
2020/12/24 20:28:50;;;;;;;5.47;1.52;;;1.50;99.90;;;;;;8212329;28;20061;-72
2020/12/24 20:32:52;;;;;;;4.70;1.23;;;1.60;99.90;;;;;;8220930;28;20058;-73
2020/12/24 20:36:56;;;;;;;7.57;1.70;;;1.30;99.90;;;;;;8237923;28;20057;-71
2020/12/24 20:40:58;;;;;;;12.15;2.45;;;;;;;;;;8216848;28;20086;-72
2020/12/24 20:44:59;;;;;;;6.30;1.60;;;1.70;99.90;;;;;;8226650;28;20126;-72
2020/12/24 20:49:01;;;;;;;8.57;1.63;;;1.90;99.90;;;;;;8216380;28;20431;-74
2020/12/24 20:53:03;;;;;;;5.38;1.13;;;1.70;99.90;;;;;;8224569;28;20492;-72
2020/12/24 20:57:04;;;;;;;6.65;1.23;;;1.70;99.90;;;;;;8234969;28;20062;-72
2020/12/24 21:01:05;;;;;;;6.72;1.60;;;1.90;99.90;;;;;;8224977;28;20412;-73
2020/12/24 21:05:07;;;;;;;5.95;1.23;;;1.90;99.90;;;;;;8229282;28;20101;-71
2020/12/24 21:09:08;;;;;;;8.85;1.17;;;2.00;99.90;;;;;;8229134;28;20045;-73
2020/12/24 21:13:10;;;;;;;6.90;1.42;;;1.90;99.90;;;;;;8210750;28;20058;-73